Time;durP1;ratioP1;P1;durP2;ratioP2;P2;SDS_P1;SDS_P2;PMS_P1;PMS_P2;Temp;Humidity;BMP_temperature;BMP_pressure;BME280_temperature;BME280_humidity;BME280_pressure;Samples;Min_cycle;Max_cycle;Signal;HPM_P1;HPM_P2
2023/02/21 02:15:19;;;;;;;1.88;1.77;;;5.20;99.90;;;;;;4953909;28;20051;-74
2023/02/21 02:17:53;;;;;;;2.78;2.15;;;5.20;99.90;;;;;;4956072;28;20043;-74
2023/02/21 02:20:41;;;;;;;1.40;1.30;;;5.10;99.90;;;;;;4932804;29;20051;-74
2023/02/21 02:23:50;;;;;;;1.52;1.42;;;4.50;99.90;;;;;;4925744;29;20304;-74
2023/02/21 02:26:29;;;;;;;2.75;2.30;;;4.00;99.90;;;;;;4944632;28;20051;-74
2023/02/21 02:29:19;;;;;;;1.63;1.52;;;3.60;99.90;;;;;;4950633;28;20507;-74
2023/02/21 02:32:08;;;;;;;1.90;1.80;;;3.40;99.90;;;;;;4905285;29;20066;-73
2023/02/21 02:35:18;;;;;;;2.00;1.67;;;3.40;99.90;;;;;;4937764;29;20043;-73
2023/02/21 02:37:46;;;;;;;2.85;1.42;;;3.30;99.90;;;;;;4942043;28;20074;-73
2023/02/21 02:40:59;;;;;;;1.10;0.93;;;3.00;99.90;;;;;;4927731;29;20413;-74
2023/02/21 02:43:51;;;;;;;1.75;1.65;;;2.70;99.90;;;;;;4890329;29;20609;-73
2023/02/21 02:46:25;;;;;;;1.73;1.42;;;2.60;99.90;;;;;;4946728;28;20047;-73
2023/02/21 02:49:13;;;;;;;3.17;1.45;;;2.40;99.90;;;;;;4944661;28;20047;-73
2023/02/21 02:51:41;;;;;;;10.68;1.40;;;2.30;99.90;;;;;;4945280;29;20063;-74
2023/02/21 02:54:10;;;;;;;2.05;1.38;;;2.40;99.90;;;;;;4934236;29;20047;-73
2023/02/21 02:56:37;;;;;;;2.22;1.83;;;2.60;99.90;;;;;;4947787;29;20082;-74
2023/02/21 02:59:09;;;;;;;2.30;2.10;;;2.80;99.90;;;;;;4949303;29;20051;-73
2023/02/21 03:02:06;;;;;;;1.40;1.30;;;2.80;99.90;;;;;;4948570;29;20058;-73
2023/02/21 03:04:53;;;;;;;5.30;4.85;;;2.70;99.90;;;;;;4921499;28;20060;-73
2023/02/21 03:07:32;;;;;;;1.83;1.73;;;2.30;99.90;;;;;;4929572;29;20059;-73
2023/02/21 03:10:15;;;;;;;6.22;1.77;;;2.10;99.90;;;;;;4926866;29;20059;-73
2023/02/21 03:12:45;;;;;;;2.05;1.70;;;1.80;99.90;;;;;;4914958;28;20051;-73
2023/02/21 03:15:24;;;;;;;2.70;1.58;;;1.90;99.90;;;;;;4954494;28;20047;-73
2023/02/21 03:18:36;;;;;;;3.33;1.65;;;2.10;99.90;;;;;;4939445;28;20051;-73
2023/02/21 03:21:10;;;;;;;1.92;1.83;;;2.10;99.90;;;;;;4944053;28;20051;-73
2023/02/21 03:23:39;;;;;;;2.33;2.13;;;2.00;99.90;;;;;;4930521;29;20063;-73
2023/02/21 03:26:09;;;;;;;3.17;1.80;;;2.10;99.90;;;;;;4926030;29;20035;-73
2023/02/21 03:28:40;;;;;;;2.80;1.95;;;2.20;99.90;;;;;;4921173;29;20059;-73
2023/02/21 03:31:09;;;;;;;1.92;1.80;;;1.90;99.90;;;;;;4931592;29;20055;-73
2023/02/21 03:33:37;;;;;;;1.15;1.10;;;1.70;99.90;;;;;;4935814;29;20054;-73
2023/02/21 03:36:08;;;;;;;2.00;1.50;;;1.60;99.90;;;;;;4918234;28;20066;-73
2023/02/21 03:38:37;;;;;;;1.42;1.33;;;1.50;99.90;;;;;;4935845;29;20054;-73
2023/02/21 03:41:07;;;;;;;4.35;1.85;;;1.40;99.90;;;;;;4915277;28;20046;-73
2023/02/21 03:43:37;;;;;;;1.02;1.02;;;1.40;99.90;;;;;;4920300;29;20624;-73
2023/02/21 03:46:05;;;;;;;1.02;1.02;;;1.30;99.90;;;;;;4936339;29;20062;-73
2023/02/21 03:48:34;;;;;;;3.03;1.60;;;1.30;99.90;;;;;;4924113;29;20044;-73
2023/02/21 03:51:22;;;;;;;2.40;2.20;;;1.30;99.90;;;;;;4931577;29;20424;-73
2023/02/21 03:53:49;;;;;;;1.95;1.48;;;1.20;99.90;;;;;;4928735;29;20051;-73
2023/02/21 03:56:19;;;;;;;2.97;2.05;;;1.20;99.90;;;;;;4922360;29;20074;-73
2023/02/21 03:59:02;;;;;;;1.73;1.60;;;1.20;99.90;;;;;;4916432;28;20059;-73
2023/02/21 04:01:33;;;;;;;2.13;1.92;;;1.30;99.90;;;;;;4932413;29;20397;-73
2023/02/21 04:04:00;;;;;;;3.35;1.67;;;1.30;99.90;;;;;;4922202;29;20039;-73
2023/02/21 04:06:28;;;;;;;2.13;2.00;;;1.30;99.90;;;;;;4923371;29;20277;-73
2023/02/21 04:08:57;;;;;;;2.95;2.72;;;1.40;99.90;;;;;;4929027;29;20047;-73
2023/02/21 04:11:26;;;;;;;3.03;1.88;;;1.70;99.90;;;;;;4914695;29;20609;-73
2023/02/21 04:13:53;;;;;;;1.90;1.58;;;1.90;99.90;;;;;;4931056;29;20047;-73
2023/02/21 04:16:21;;;;;;;2.08;1.80;;;2.00;99.90;;;;;;4947831;29;20047;-73
2023/02/21 04:18:52;;;;;;;2.65;2.45;;;2.30;99.90;;;;;;4951298;28;20054;-73
2023/02/21 04:21:20;;;;;;;5.30;2.95;;;2.40;99.90;;;;;;4931517;29;20047;-73
2023/02/21 04:23:49;;;;;;;3.42;2.35;;;2.50;99.90;;;;;;4924007;29;20059;-73
2023/02/21 04:26:17;;;;;;;7.15;2.40;;;2.80;99.90;;;;;;4936801;29;20058;-73
2023/02/21 04:28:50;;;;;;;2.88;2.67;;;3.30;99.90;;;;;;4927615;28;20046;-73
2023/02/21 04:31:18;;;;;;;2.63;2.20;;;3.70;99.90;;;;;;4945912;29;20063;-73
2023/02/21 04:33:46;;;;;;;4.00;2.22;;;3.70;99.90;;;;;;4930217;28;20074;-73
2023/02/21 04:36:20;;;;;;;5.22;2.63;;;3.50;99.90;;;;;;4927552;28;20053;-73
2023/02/21 04:38:49;;;;;;;2.90;2.58;;;3.40;99.90;;;;;;4938132;28;20047;-73
2023/02/21 04:41:17;;;;;;;3.47;3.15;;;3.30;99.90;;;;;;4952084;28;20043;-73
2023/02/21 04:43:44;;;;;;;2.60;2.05;;;3.20;99.90;;;;;;4930933;29;20059;-73
2023/02/21 04:46:15;;;;;;;2.25;2.08;;;3.20;99.90;;;;;;4929528;29;20056;-73
2023/02/21 04:48:46;;;;;;;2.92;2.65;;;3.20;99.90;;;;;;4929556;29;20062;-73
2023/02/21 04:51:23;;;;;;;2.08;1.85;;;3.40;99.90;;;;;;4934797;29;20371;-73
2023/02/21 04:53:52;;;;;;;2.40;1.98;;;3.60;99.90;;;;;;4943930;28;20047;-73
2023/02/21 04:56:22;;;;;;;4.13;3.50;;;3.60;99.90;;;;;;4953243;29;20054;-73
2023/02/21 04:58:50;;;;;;;3.92;1.98;;;3.30;99.90;;;;;;4954718;28;20043;-72
2023/02/21 05:01:19;;;;;;;2.90;2.20;;;3.30;99.90;;;;;;4937711;29;20046;-73
2023/02/21 05:03:48;;;;;;;3.45;3.15;;;3.30;99.90;;;;;;4954885;28;20144;-73
2023/02/21 05:06:18;;;;;;;2.00;1.88;;;3.40;99.90;;;;;;4928001;29;20047;-73
2023/02/21 05:08:46;;;;;;;3.42;2.78;;;3.40;99.90;;;;;;4938642;29;20059;-73
2023/02/21 05:11:14;;;;;;;4.68;1.75;;;3.30;99.90;;;;;;4955288;29;20059;-73
2023/02/21 05:13:43;;;;;;;4.35;2.95;;;3.20;99.90;;;;;;4937905;29;20039;-72
2023/02/21 05:16:11;;;;;;;4.22;1.90;;;3.20;99.90;;;;;;4954221;29;20051;-73
2023/02/21 05:18:42;;;;;;;3.00;1.90;;;3.10;99.90;;;;;;4935697;29;20043;-73
2023/02/21 05:25:35;;;;;;;2.05;1.90;;;3.50;99.90;;;;;;4935377;29;20023;-73
2023/02/21 05:28:03;;;;;;;2.03;1.83;;;3.90;99.90;;;;;;4935115;29;20044;-73
2023/02/21 05:30:31;;;;;;;2.53;2.33;;;3.90;99.90;;;;;;4935355;29;20044;-73
2023/02/21 05:32:59;;;;;;;3.00;2.70;;;3.70;99.90;;;;;;4935084;29;20043;-73
2023/02/21 05:35:27;;;;;;;9.60;2.47;;;3.80;99.90;;;;;;4948747;29;20048;-73
2023/02/21 05:37:55;;;;;;;3.53;2.05;;;3.80;99.90;;;;;;4954417;28;20043;-73
2023/02/21 05:40:22;;;;;;;2.08;1.88;;;4.00;99.90;;;;;;4953416;29;20400;-73
2023/02/21 05:42:53;;;;;;;2.50;2.28;;;4.00;99.90;;;;;;4937392;29;20047;-73
2023/02/21 05:45:20;;;;;;;2.53;2.33;;;3.90;99.90;;;;;;4954538;28;20050;-73
2023/02/21 05:47:48;;;;;;;6.85;3.35;;;3.80;99.90;;;;;;4937978;29;20051;-73
2023/02/21 05:51:30;;;;;;;2.00;1.88;;;3.60;99.90;;;;;;4954332;29;20047;-73
2023/02/21 05:53:58;;;;;;;1.77;1.65;;;3.30;99.90;;;;;;4936927;29;20074;-73
2023/02/21 05:56:26;;;;;;;3.00;1.63;;;3.20;99.90;;;;;;4955148;29;20400;-73
2023/02/21 05:58:53;;;;;;;2.92;2.40;;;3.40;99.90;;;;;;4953683;29;20066;-73
2023/02/21 06:01:24;;;;;;;3.70;2.50;;;3.50;99.90;;;;;;4959341;28;20042;-73
2023/02/21 06:03:51;;;;;;;2.63;2.17;;;3.50;99.90;;;;;;4939879;29;20047;-73
2023/02/21 06:06:19;;;;;;;2.25;2.08;;;3.50;99.90;;;;;;4953787;29;20081;-73
2023/02/21 06:08:48;;;;;;;2.78;1.80;;;3.40;99.90;;;;;;4954177;28;20055;-73
2023/02/21 06:11:23;;;;;;;3.58;2.97;;;3.30;99.90;;;;;;4953923;28;20062;-73
2023/02/21 06:13:51;;;;;;;2.17;2.03;;;3.30;99.90;;;;;;4953959;29;20035;-73
2023/02/21 06:16:19;;;;;;;2.47;1.55;;;3.30;99.90;;;;;;4960536;28;20055;-73
2023/02/21 06:18:52;;;;;;;2.80;1.88;;;3.00;99.90;;;;;;4977656;28;20065;-73
2023/02/21 06:21:20;;;;;;;4.68;3.15;;;2.80;99.90;;;;;;4976742;28;20047;-73
2023/02/21 06:23:48;;;;;;;3.25;2.30;;;2.90;99.90;;;;;;4966421;28;20043;-73
2023/02/21 06:26:16;;;;;;;3.30;2.35;;;2.90;99.90;;;;;;4967716;28;20082;-74
2023/02/21 06:28:44;;;;;;;3.50;2.83;;;3.00;99.90;;;;;;4957290;28;20036;-73
2023/02/21 06:31:12;;;;;;;6.70;2.20;;;3.00;99.90;;;;;;4974916;28;20258;-73
2023/02/21 06:33:41;;;;;;;2.85;1.90;;;2.80;99.90;;;;;;4970552;28;20058;-73
2023/02/21 06:36:17;;;;;;;1.75;1.65;;;2.60;99.90;;;;;;4975700;28;20049;-73
2023/02/21 06:38:50;;;;;;;2.65;2.45;;;2.30;99.90;;;;;;4959910;28;20050;-74
2023/02/21 06:41:20;;;;;;;3.05;1.85;;;2.20;99.90;;;;;;4977256;28;20035;-74
2023/02/21 06:43:48;;;;;;;2.10;1.90;;;2.00;99.90;;;;;;4978360;28;20046;-74
2023/02/21 06:46:17;;;;;;;3.08;2.72;;;2.00;99.90;;;;;;4981642;28;20035;-73
2023/02/21 06:48:46;;;;;;;1.90;1.80;;;2.00;99.90;;;;;;4981579;28;20052;-74
2023/02/21 06:51:14;;;;;;;2.22;2.03;;;2.10;99.90;;;;;;4976760;28;20047;-74
2023/02/21 06:53:44;;;;;;;3.05;2.30;;;2.30;99.90;;;;;;4959612;28;20039;-73
2023/02/21 06:56:11;;;;;;;3.47;2.70;;;2.50;99.90;;;;;;4976031;28;20043;-74
2023/02/21 06:58:39;;;;;;;3.58;2.75;;;2.70;99.90;;;;;;4975607;28;20181;-74
2023/02/21 07:01:07;;;;;;;2.72;2.53;;;2.80;99.90;;;;;;4953103;28;20035;-74
2023/02/21 07:03:38;;;;;;;3.05;2.83;;;2.90;99.90;;;;;;4974254;28;20053;-74
2023/02/21 07:06:06;;;;;;;1.98;1.88;;;2.90;99.90;;;;;;4981302;28;20041;-74
2023/02/21 07:08:34;;;;;;;2.50;2.22;;;2.90;99.90;;;;;;4957858;28;20044;-74
2023/02/21 07:11:01;;;;;;;6.63;1.95;;;3.00;99.90;;;;;;4976479;28;20051;-74
2023/02/21 07:13:29;;;;;;;4.40;2.55;;;3.00;99.90;;;;;;4959919;28;20038;-74
2023/02/21 07:15:57;;;;;;;4.20;2.03;;;3.00;99.90;;;;;;4973701;28;20312;-74
2023/02/21 07:18:26;;;;;;;4.10;2.30;;;3.10;99.90;;;;;;4978678;28;20047;-74
2023/02/21 07:20:54;;;;;;;2.28;1.95;;;3.00;99.90;;;;;;4969314;28;20035;-74
2023/02/21 07:23:22;;;;;;;3.10;2.33;;;3.10;99.90;;;;;;4966650;28;20047;-74
2023/02/21 07:25:50;;;;;;;2.17;2.08;;;3.30;99.90;;;;;;4975295;28;20278;-74
2023/02/21 07:28:17;;;;;;;2.65;2.33;;;3.70;99.90;;;;;;4980420;28;20049;-74
2023/02/21 07:30:46;;;;;;;9.68;1.90;;;4.20;99.90;;;;;;4975990;28;20043;-74
2023/02/21 07:33:14;;;;;;;3.70;2.90;;;5.30;99.90;;;;;;4961255;28;20047;-74
2023/02/21 07:35:42;;;;;;;3.30;3.08;;;5.90;99.90;;;;;;4948412;29;20730;-73
2023/02/21 07:38:09;;;;;;;3.28;2.63;;;6.20;99.90;;;;;;4939217;29;20047;-74
2023/02/21 07:40:37;;;;;;;2.05;1.90;;;6.30;99.90;;;;;;4931848;29;20051;-74
2023/02/21 07:43:06;;;;;;;2.55;2.35;;;6.50;99.90;;;;;;4949477;29;20054;-74
2023/02/21 07:45:34;;;;;;;1.30;1.20;;;6.90;99.90;;;;;;4952375;28;20042;-74
2023/02/21 07:48:01;;;;;;;3.85;2.58;;;7.20;99.90;;;;;;4931768;29;20051;-74
2023/02/21 07:50:29;;;;;;;2.50;1.98;;;7.40;99.90;;;;;;4936255;29;20329;-74
2023/02/21 07:52:59;;;;;;;2.15;2.00;;;7.50;99.90;;;;;;4928520;29;20054;-74
2023/02/21 07:55:27;;;;;;;1.70;1.60;;;7.70;99.90;;;;;;4930139;29;20050;-74
2023/02/21 07:57:55;;;;;;;3.47;2.80;;;7.70;99.90;;;;;;4945376;28;20523;-74
2023/02/21 08:00:24;;;;;;;2.28;1.73;;;7.90;99.90;;;;;;4954257;28;20512;-73
2023/02/21 08:02:51;;;;;;;2.38;1.70;;;8.00;99.90;;;;;;4954084;28;20500;-74
2023/02/21 08:05:22;;;;;;;4.95;3.10;;;8.10;99.90;;;;;;4933507;29;20047;-74
2023/02/21 08:07:50;;;;;;;1.60;1.50;;;8.30;99.90;;;;;;4945459;29;20048;-74
2023/02/21 08:10:23;;;;;;;3.60;1.70;;;8.40;99.90;;;;;;4946382;28;20787;-74
2023/02/21 08:12:52;;;;;;;3.22;1.83;;;8.50;99.90;;;;;;4926196;28;20686;-74
2023/02/21 08:15:19;;;;;;;2.33;1.70;;;8.60;99.90;;;;;;4954668;28;20061;-74
2023/02/21 08:17:48;;;;;;;3.55;1.80;;;8.80;99.90;;;;;;4946663;28;20054;-74
2023/02/21 08:20:19;;;;;;;7.47;2.00;;;8.90;99.90;;;;;;4928547;29;20051;-73
2023/02/21 08:22:46;;;;;;;2.75;1.80;;;8.90;99.90;;;;;;4946432;28;20768;-74
2023/02/21 08:25:15;;;;;;;7.88;2.25;;;9.10;99.90;;;;;;4928902;28;20039;-74
2023/02/21 08:27:45;;;;;;;2.47;1.75;;;9.20;99.90;;;;;;4948214;28;20081;-74
2023/02/21 08:30:15;;;;;;;4.60;2.03;;;9.20;99.90;;;;;;4954954;28;20043;-74
2023/02/21 08:32:47;;;;;;;2.37;1.30;;;9.30;99.90;;;;;;4936464;28;20058;-74
2023/02/21 08:35:16;;;;;;;1.98;1.83;;;9.40;99.90;;;;;;4936833;28;20051;-74
2023/02/21 08:37:46;;;;;;;2.03;1.20;;;9.50;99.90;;;;;;4944826;28;20105;-75
2023/02/21 08:40:17;;;;;;;2.92;1.15;;;9.60;99.90;;;;;;4934923;28;20829;-75
2023/02/21 08:42:53;;;;;;;1.63;1.52;;;9.70;99.90;;;;;;4951927;28;20522;-74
2023/02/21 08:45:23;;;;;;;1.75;1.23;;;9.70;99.90;;;;;;4935584;28;20051;-74
2023/02/21 08:47:51;;;;;;;1.70;1.60;;;9.70;99.90;;;;;;4934487;29;20051;-74
2023/02/21 08:50:21;;;;;;;1.70;1.50;;;9.70;99.90;;;;;;4941586;28;20428;-74
2023/02/21 08:52:49;;;;;;;2.50;1.65;;;9.70;99.90;;;;;;4944603;29;20043;-73
2023/02/21 08:55:18;;;;;;;1.60;1.50;;;9.80;99.90;;;;;;4943757;28;20047;-74
2023/02/21 08:57:51;;;;;;;1.77;1.42;;;10.00;99.90;;;;;;4922635;29;20044;-74
2023/02/21 09:00:27;;;;;;;2.00;1.60;;;10.00;99.90;;;;;;4930757;29;20059;-74
2023/02/21 09:02:56;;;;;;;7.82;2.38;;;10.30;99.90;;;;;;4944704;28;20084;-74
2023/02/21 09:05:27;;;;;;;1.30;1.20;;;10.50;99.90;;;;;;4945818;28;20356;-74
2023/02/21 09:07:57;;;;;;;;;;;10.40;99.90;;;;;;4944339;28;20516;-74
2023/02/21 09:10:27;;;;;;;0.90;0.90;;;10.40;99.90;;;;;;4949031;28;19922;-74
2023/02/21 09:12:55;;;;;;;1.83;1.73;;;10.50;99.90;;;;;;4947156;28;20293;-75
2023/02/21 09:15:22;;;;;;;1.50;1.40;;;10.70;99.90;;;;;;4947919;29;20381;-74
2023/02/21 09:17:51;;;;;;;1.60;1.20;;;10.80;99.90;;;;;;4947861;29;20568;-74
2023/02/21 09:20:21;;;;;;;1.10;1.02;;;10.90;99.90;;;;;;4951657;28;20050;-75
2023/02/21 09:22:49;;;;;;;0.90;0.90;;;11.00;99.90;;;;;;4920724;29;20043;-74
2023/02/21 09:25:21;;;;;;;2.15;1.20;;;11.40;99.90;;;;;;4950638;28;20055;-74
2023/02/21 09:27:51;;;;;;;1.50;1.20;;;11.40;98.60;;;;;;4947040;28;20398;-74
2023/02/21 09:30:23;;;;;;;;;;;11.20;99.40;;;;;;4946681;28;20044;-75
2023/02/21 09:32:51;;;;;;;1.48;1.38;;;11.70;99.90;;;;;;4930506;28;19953;-75
2023/02/21 09:35:18;;;;;;;3.45;1.83;;;12.00;99.80;;;;;;4929944;28;20356;-75
2023/02/21 09:37:49;;;;;;;1.55;0.85;;;12.10;97.10;;;;;;4930956;29;20047;-74
2023/02/21 09:40:36;;;;;;;8.77;1.38;;;12.20;98.80;;;;;;4944228;28;20051;-75
2023/02/21 09:43:10;;;;;;;3.08;1.30;;;12.30;96.70;;;;;;4918240;29;20411;-74
2023/02/21 09:45:38;;;;;;;1.98;0.80;;;12.20;99.00;;;;;;4936990;28;20047;-75
2023/02/21 09:48:20;;;;;;;1.83;1.25;;;12.30;97.90;;;;;;4937736;29;20066;-74
2023/02/21 09:51:00;;;;;;;4.30;1.90;;;12.70;95.30;;;;;;4945023;28;20046;-74
2023/02/21 09:53:32;;;;;;;1.27;1.13;;;12.20;96.20;;;;;;4949420;28;20051;-75
2023/02/21 09:56:06;;;;;;;0.88;0.88;;;11.70;97.30;;;;;;4936697;29;20668;-74
2023/02/21 09:58:37;;;;;;;2.33;1.25;;;11.60;98.30;;;;;;4937190;29;20714;-74
2023/02/21 10:01:13;;;;;;;3.35;1.17;;;11.60;99.00;;;;;;4933529;29;20817;-75
2023/02/21 10:03:57;;;;;;;1.73;1.10;;;11.60;99.60;;;;;;4932846;29;20817;-75
2023/02/21 10:06:46;;;;;;;2.10;1.17;;;11.60;99.90;;;;;;4946109;28;20047;-74
2023/02/21 10:09:49;;;;;;;1.15;0.80;;;11.70;98.10;;;;;;4949339;29;20051;-75
2023/02/21 10:13:01;;;;;;;1.63;1.25;;;11.70;97.80;;;;;;4918040;29;20062;-74
2023/02/21 10:15:31;;;;;;;1.05;0.95;;;11.60;99.00;;;;;;4852406;29;20050;-74
2023/02/21 10:18:15;;;;;;;2.15;1.30;;;11.50;99.90;;;;;;4838296;29;20054;-74
2023/02/21 10:21:03;;;;;;;7.05;1.25;;;11.70;99.90;;;;;;4916128;28;20051;-75
2023/02/21 10:23:42;;;;;;;1.98;0.93;;;11.70;98.30;;;;;;4932861;29;20519;-74
2023/02/21 10:26:16;;;;;;;3.15;1.40;;;11.80;99.90;;;;;;4935340;29;20094;-74
2023/02/21 10:28:44;;;;;;;3.83;1.17;;;11.80;99.90;;;;;;4946699;29;20055;-74
2023/02/21 10:31:34;;;;;;;2.63;1.35;;;11.80;99.90;;;;;;4950473;29;20047;-74
2023/02/21 10:34:14;;;;;;;1.08;1.08;;;11.80;99.10;;;;;;4916394;29;20047;-74
2023/02/21 10:36:42;;;;;;;3.97;1.20;;;11.90;99.30;;;;;;4933072;28;20051;-74
2023/02/21 10:39:21;;;;;;;3.63;1.85;;;12.10;99.90;;;;;;4917415;28;20513;-74
2023/02/21 10:41:50;;;;;;;5.50;1.77;;;12.10;96.70;;;;;;4952168;28;20039;-74
2023/02/21 10:44:29;;;;;;;7.80;2.00;;;12.00;98.30;;;;;;4935992;28;20055;-74
2023/02/21 10:47:19;;;;;;;1.77;1.50;;;12.10;99.30;;;;;;4934067;29;20075;-74
2023/02/21 10:50:00;;;;;;;1.38;1.27;;;12.10;97.10;;;;;;4945361;28;20051;-81
2023/02/21 10:52:27;;;;;;;3.55;1.70;;;12.10;98.00;;;;;;4947185;28;20257;-80
2023/02/21 10:55:07;;;;;;;12.10;2.20;;;12.20;96.70;;;;;;4943503;28;20055;-80
2023/02/21 10:57:45;;;;;;;4.97;1.85;;;12.30;98.60;;;;;;4939108;29;20047;-79
2023/02/21 11:00:34;;;;;;;4.45;1.67;;;12.20;98.50;;;;;;4942796;28;20067;-74
2023/02/21 11:03:26;;;;;;;1.75;1.40;;;12.30;97.40;;;;;;4930247;29;20431;-74
2023/02/21 11:05:57;;;;;;;7.22;1.60;;;12.50;96.50;;;;;;4950538;28;20043;-74
2023/02/21 11:08:38;;;;;;;2.50;1.63;;;12.70;98.70;;;;;;4947313;28;20070;-75
2023/02/21 11:11:06;;;;;;;;;;;12.90;97.90;;;;;;4905164;29;20055;-74
2023/02/21 11:13:35;;;;;;;2.78;1.35;;;13.00;96.40;;;;;;4928197;29;19927;-74
2023/02/21 11:16:18;;;;;;;1.30;0.98;;;12.80;96.30;;;;;;4947089;28;20054;-75
2023/02/21 11:18:45;;;;;;;1.17;1.02;;;12.80;95.50;;;;;;4952229;28;20365;-74
2023/02/21 11:21:18;;;;;;;1.15;0.70;;;13.00;95.90;;;;;;4924991;28;20040;-74
2023/02/21 11:24:05;;;;;;;1.40;1.30;;;13.10;95.80;;;;;;4941703;28;20043;-74
2023/02/21 11:26:46;;;;;;;3.78;2.85;;;13.10;95.80;;;;;;4946709;28;20424;-74
2023/02/21 11:29:17;;;;;;;2.08;1.60;;;13.10;95.50;;;;;;4934824;28;20424;-75
2023/02/21 11:31:45;;;;;;;;;;;13.10;97.40;;;;;;4934305;29;20067;-75
2023/02/21 11:34:13;;;;;;;1.60;1.30;;;13.10;94.40;;;;;;4951110;28;20024;-74
2023/02/21 11:36:44;;;;;;;1.88;1.10;;;13.00;97.40;;;;;;4949482;29;20051;-75
2023/02/21 11:39:33;;;;;;;1.63;1.52;;;13.10;94.30;;;;;;4936705;28;20551;-74
2023/02/21 11:42:03;;;;;;;2.88;1.52;;;12.90;95.60;;;;;;4952158;28;20055;-74
2023/02/21 11:44:40;;;;;;;1.13;1.07;;;13.20;96.50;;;;;;4948394;29;20459;-75
2023/02/21 11:47:14;;;;;;;1.20;1.08;;;13.30;95.00;;;;;;4948105;28;20423;-74
2023/02/21 11:49:52;;;;;;;7.55;1.95;;;13.40;96.30;;;;;;4952026;28;20051;-75
2023/02/21 11:52:25;;;;;;;3.10;1.83;;;13.30;93.70;;;;;;4944802;29;20387;-76
2023/02/21 11:54:53;;;;;;;2.33;1.13;;;13.30;93.80;;;;;;4930937;28;20818;-75
2023/02/21 11:57:49;;;;;;;2.47;1.30;;;13.50;96.80;;;;;;4953576;28;20057;-74
2023/02/21 12:01:00;;;;;;;11.80;1.40;;;13.50;93.10;;;;;;4931991;29;20059;-76
2023/02/21 12:03:34;;;;;;;;;;;13.70;94.20;;;;;;4933966;29;20388;-74
2023/02/21 12:06:27;;;;;;;2.88;1.75;;;13.70;93.30;;;;;;4951951;28;19933;-74
2023/02/21 12:09:13;;;;;;;1.45;1.35;;;13.80;94.80;;;;;;4952967;28;20678;-74
2023/02/21 12:11:53;;;;;;;0.70;0.70;;;13.90;92.90;;;;;;4952067;28;20051;-74
2023/02/21 12:14:26;;;;;;;2.30;0.90;;;14.00;92.30;;;;;;4946732;28;20727;-74
2023/02/21 12:17:28;;;;;;;10.27;1.55;;;14.10;92.70;;;;;;4933317;28;20039;-74
2023/02/21 12:20:36;;;;;;;1.30;1.08;;;14.30;91.90;;;;;;4945700;29;20444;-75
2023/02/21 12:23:07;;;;;;;1.00;1.00;;;14.30;93.70;;;;;;4907925;29;20054;-75
2023/02/21 12:25:52;;;;;;;1.35;1.00;;;14.50;93.50;;;;;;4941026;28;20046;-75
2023/02/21 12:28:33;;;;;;;1.55;1.10;;;14.50;92.60;;;;;;4927983;29;20054;-75
2023/02/21 12:31:03;;;;;;;;;;;14.90;94.10;;;;;;4948589;28;20051;-75
2023/02/21 12:34:11;;;;;;;0.75;0.75;;;14.50;91.60;;;;;;4913741;29;19941;-75
2023/02/21 12:37:01;;;;;;;0.65;0.65;;;14.20;91.20;;;;;;4945704;28;20055;-74
2023/02/21 12:40:14;;;;;;;0.98;0.85;;;14.20;92.30;;;;;;4941492;29;20044;-75
2023/02/21 12:42:57;;;;;;;0.82;0.82;;;14.30;92.90;;;;;;4947998;28;20043;-75
2023/02/21 12:45:41;;;;;;;1.10;1.00;;;14.50;91.90;;;;;;4941571;29;20663;-74
2023/02/21 12:48:26;;;;;;;1.63;1.58;;;14.60;91.80;;;;;;4954077;28;20062;-74
2023/02/21 12:51:02;;;;;;;1.77;1.05;;;14.60;92.20;;;;;;4942150;29;20051;-74
2023/02/21 12:53:34;;;;;;;3.67;1.95;;;14.40;91.80;;;;;;4926670;29;20047;-75
2023/02/21 12:56:12;;;;;;;2.42;1.13;;;14.40;93.00;;;;;;4951367;28;20105;-75
2023/02/21 12:59:08;;;;;;;1.10;1.00;;;14.50;91.20;;;;;;4930590;29;20448;-74
2023/02/21 13:01:43;;;;;;;2.22;1.65;;;14.50;91.70;;;;;;4947283;28;20043;-75
2023/02/21 13:04:36;;;;;;;1.70;1.17;;;14.60;93.60;;;;;;4949465;28;20067;-74
2023/02/21 13:07:24;;;;;;;1.65;1.48;;;14.60;93.70;;;;;;4919734;29;20043;-74
2023/02/21 13:10:04;;;;;;;2.47;2.27;;;14.50;94.20;;;;;;4911080;28;20071;-75
2023/02/21 13:13:14;;;;;;;1.52;1.23;;;14.40;93.30;;;;;;4926866;29;20302;-74
2023/02/21 13:15:45;;;;;;;5.63;2.05;;;14.50;93.70;;;;;;4927713;29;20063;-75
2023/02/21 13:18:36;;;;;;;0.80;0.80;;;14.50;93.10;;;;;;4947667;28;20440;-74
2023/02/21 13:21:34;;;;;;;16.73;2.22;;;14.70;92.70;;;;;;4940480;29;20411;-74
2023/02/21 13:24:29;;;;;;;12.73;2.05;;;14.60;94.30;;;;;;4945792;28;20472;-75
2023/02/21 13:27:24;;;;;;;1.40;1.30;;;14.40;91.90;;;;;;4910265;29;20062;-75
2023/02/21 13:30:02;;;;;;;2.03;1.10;;;14.50;93.00;;;;;;4946102;29;20614;-75
2023/02/21 13:32:37;;;;;;;1.20;1.10;;;14.80;92.10;;;;;;4937179;28;20058;-75
2023/02/21 13:35:08;;;;;;;0.98;0.90;;;14.70;92.60;;;;;;4934017;29;20051;-75
2023/02/21 13:37:45;;;;;;;1.15;0.73;;;14.70;91.40;;;;;;4946337;29;20059;-75
2023/02/21 13:40:31;;;;;;;1.63;0.85;;;14.90;92.70;;;;;;4923016;29;20051;-75
2023/02/21 13:43:12;;;;;;;1.00;0.73;;;15.10;93.90;;;;;;4943422;28;20436;-75
2023/02/21 13:45:40;;;;;;;1.00;0.98;;;15.40;92.10;;;;;;4933093;28;20403;-75
2023/02/21 13:48:43;;;;;;;;;;;15.10;93.60;;;;;;4935658;29;20059;-75
2023/02/21 13:51:51;;;;;;;2.45;1.27;;;15.10;91.70;;;;;;4897814;28;20143;-75
2023/02/21 13:54:24;;;;;;;0.88;0.88;;;15.20;92.70;;;;;;4945108;29;20059;-75
2023/02/21 13:56:52;;;;;;;0.73;0.70;;;15.10;92.10;;;;;;4944660;28;20048;-75
2023/02/21 13:59:23;;;;;;;0.73;0.40;;;15.00;92.20;;;;;;4947922;28;20735;-75
2023/02/21 14:02:11;;;;;;;1.73;1.63;;;15.30;92.90;;;;;;4950796;28;20062;-75
2023/02/21 14:05:00;;;;;;;1.95;0.77;;;15.20;91.80;;;;;;4946736;28;20688;-75
2023/02/21 14:07:46;;;;;;;1.85;0.93;;;15.30;92.90;;;;;;4945082;29;20051;-75
2023/02/21 14:10:36;;;;;;;1.85;1.20;;;15.30;90.60;;;;;;4923395;29;20078;-75
2023/02/21 14:13:16;;;;;;;5.95;0.88;;;15.30;91.30;;;;;;4942664;28;20385;-75
2023/02/21 14:15:46;;;;;;;2.72;0.80;;;15.50;90.50;;;;;;4946549;29;20051;-75
2023/02/21 14:18:19;;;;;;;2.25;1.30;;;15.30;91.10;;;;;;4947235;28;20401;-75
2023/02/21 14:20:50;;;;;;;2.05;1.00;;;15.30;90.60;;;;;;4942063;28;20054;-75
2023/02/21 14:23:18;;;;;;;;;;;15.40;91.30;;;;;;4947896;29;20542;-75
2023/02/21 14:25:58;;;;;;;0.85;0.85;;;15.60;90.90;;;;;;4945498;28;19926;-75
2023/02/21 14:28:57;;;;;;;0.47;0.47;;;15.50;90.70;;;;;;4918685;29;20062;-75
2023/02/21 14:31:47;;;;;;;0.60;0.60;;;15.50;91.60;;;;;;4929191;29;20058;-75
2023/02/21 14:34:31;;;;;;;1.02;0.57;;;15.60;91.00;;;;;;4930109;29;20047;-75
2023/02/21 14:37:31;;;;;;;0.63;0.63;;;15.60;91.30;;;;;;4933153;28;20047;-75
2023/02/21 14:40:09;;;;;;;3.40;1.15;;;15.40;91.80;;;;;;4932491;29;20066;-75
2023/02/21 14:42:40;;;;;;;1.55;0.60;;;15.30;90.60;;;;;;4937005;28;20062;-75
2023/02/21 14:45:10;;;;;;;1.15;0.82;;;15.20;91.70;;;;;;4955540;28;20064;-75
2023/02/21 14:47:41;;;;;;;0.90;0.77;;;15.20;91.40;;;;;;4940782;29;20070;-74
2023/02/21 14:50:27;;;;;;;0.65;0.65;;;15.20;91.10;;;;;;4939475;28;20073;-75
2023/02/21 14:53:26;;;;;;;4.57;0.93;;;15.10;90.70;;;;;;4954318;28;20046;-75
2023/02/21 14:56:36;;;;;;;1.90;0.63;;;15.00;92.00;;;;;;4937068;29;20051;-76
2023/02/21 14:59:41;;;;;;;1.38;1.02;;;15.20;92.60;;;;;;4936861;29;20078;-75
2023/02/21 15:02:17;;;;;;;0.90;0.90;;;15.30;91.50;;;;;;4933487;28;20431;-76
2023/02/21 15:05:23;;;;;;;1.35;1.15;;;15.20;90.50;;;;;;4921984;29;20062;-76
2023/02/21 15:07:51;;;;;;;1.30;0.75;;;15.20;90.80;;;;;;4859241;29;20462;-75
2023/02/21 15:10:30;;;;;;;2.00;0.60;;;15.10;91.70;;;;;;4911582;29;20440;-76
2023/02/21 15:13:01;;;;;;;9.55;1.15;;;15.00;91.70;;;;;;4932517;29;20479;-76
2023/02/21 15:15:41;;;;;;;0.57;0.57;;;15.00;92.80;;;;;;4939091;28;20055;-76
2023/02/21 15:18:25;;;;;;;0.70;0.60;;;14.90;91.40;;;;;;4945788;28;20053;-76
2023/02/21 15:21:17;;;;;;;1.92;0.82;;;14.90;91.30;;;;;;4949357;28;20036;-76
2023/02/21 15:23:59;;;;;;;0.65;0.50;;;14.80;91.20;;;;;;4933275;28;20443;-76
2023/02/21 15:26:30;;;;;;;0.50;0.50;;;14.80;91.10;;;;;;4949227;28;20063;-76
2023/02/21 15:29:11;;;;;;;2.67;0.95;;;14.80;92.10;;;;;;4949845;28;20043;-76
2023/02/21 15:31:41;;;;;;;;;;;14.80;92.20;;;;;;4948518;28;20495;-76
2023/02/21 15:34:20;;;;;;;2.13;0.90;;;14.80;92.30;;;;;;4946126;28;19934;-76
2023/02/21 15:37:01;;;;;;;1.55;1.17;;;14.80;95.00;;;;;;4947452;28;20510;-76
2023/02/21 15:39:31;;;;;;;;;;;14.80;94.80;;;;;;4943464;29;20067;-76
2023/02/21 15:42:04;;;;;;;0.60;0.60;;;14.70;94.30;;;;;;4952819;28;19927;-76
2023/02/21 15:44:38;;;;;;;0.75;0.75;;;14.60;94.20;;;;;;4921161;29;20055;-76
2023/02/21 15:47:13;;;;;;;3.28;1.27;;;14.50;93.70;;;;;;4951829;28;20058;-76
2023/02/21 15:49:50;;;;;;;1.35;0.90;;;14.50;93.90;;;;;;4952911;28;20047;-76
2023/02/21 15:52:26;;;;;;;2.67;2.47;;;14.40;93.60;;;;;;4936431;29;20058;-76
2023/02/21 15:55:19;;;;;;;1.00;0.75;;;14.30;94.50;;;;;;4954362;28;20044;-75
2023/02/21 15:58:02;;;;;;;4.93;1.98;;;14.20;94.70;;;;;;4935846;29;20055;-75
2023/02/21 16:00:31;;;;;;;2.45;1.08;;;14.10;95.70;;;;;;4952091;28;20054;-76